createdAt,value
2022-10-23T00:01:26.347Z,101461.22
2022-10-23T00:03:58.979Z,101459.50
2022-10-23T00:06:26.476Z,101454.47
2022-10-23T00:08:53.068Z,101459.75
2022-10-23T00:11:22.297Z,101453.81
2022-10-23T00:13:49.413Z,101456.53
2022-10-23T00:16:15.857Z,101455.84
2022-10-23T00:18:42.542Z,101460.22
2022-10-23T00:21:11.401Z,101459.44
2022-10-23T00:23:38.169Z,101461.44
2022-10-23T00:26:04.914Z,101458.81
2022-10-23T00:28:31.332Z,101465.03
2022-10-23T00:30:57.656Z,101460.66
2022-10-23T00:33:23.962Z,101459.03
2022-10-23T00:35:50.303Z,101463.50
2022-10-23T00:38:16.673Z,101452.22
2022-10-23T00:40:44.769Z,101447.75
2022-10-23T00:43:21.134Z,101450.38
2022-10-23T00:45:47.907Z,101443.75
2022-10-23T00:48:15.061Z,101452.34
2022-10-23T00:50:42.135Z,101447.13
2022-10-23T00:53:10.171Z,101441.13
2022-10-23T00:55:38.345Z,101440.41
2022-10-23T00:58:05.296Z,101444.69
2022-10-23T01:00:44.075Z,101444.50
2022-10-23T01:03:10.536Z,101438.63
2022-10-23T01:08:48.719Z,101438.47
2022-10-23T01:11:18.721Z,101437.78
2022-10-23T01:16:49.745Z,101443.75
2022-10-23T01:19:25.279Z,101445.44
2022-10-23T01:22:00.311Z,101437.69
2022-10-23T01:24:49.302Z,101431.56
2022-10-23T01:27:20.400Z,101430.91
2022-10-23T01:29:54.326Z,101431.78
2022-10-23T01:32:30.965Z,101425.78
2022-10-23T01:35:21.791Z,101435.31
2022-10-23T01:37:54.027Z,101434.41
2022-10-23T01:40:25.164Z,101431.78
2022-10-23T01:42:56.331Z,101423.19
2022-10-23T01:45:36.043Z,101417.09
2022-10-23T01:48:04.477Z,101412.09
2022-10-23T01:50:32.162Z,101411.19
2022-10-23T01:52:58.657Z,101409.50
2022-10-23T01:55:25.970Z,101411.19
2022-10-23T01:57:53.686Z,101407.66
2022-10-23T02:00:20.851Z,101403.38
2022-10-23T02:02:50.209Z,101401.66
2022-10-23T02:05:24.494Z,101399.13
2022-10-23T02:07:52.597Z,101394.06
2022-10-23T02:10:19.848Z,101391.53
2022-10-23T02:12:49.054Z,101386.53
2022-10-23T02:15:18.300Z,101380.47
2022-10-23T02:18:10.649Z,101376.88
2022-10-23T02:20:45.808Z,101379.53
2022-10-23T02:23:31.217Z,101379.53
2022-10-23T02:26:07.978Z,101376.09
2022-10-23T02:28:45.418Z,101372.66
2022-10-23T02:31:16.479Z,101369.28
2022-10-23T02:33:45.840Z,101360.59
2022-10-23T02:36:12.548Z,101358.97
2022-10-23T02:38:41.810Z,101350.31
2022-10-23T02:41:36.657Z,101345.00
2022-10-23T02:44:24.333Z,101341.63
2022-10-23T02:47:08.233Z,101351.22
2022-10-23T02:49:42.624Z,101356.69
2022-10-23T02:52:17.914Z,101363.50
2022-10-23T02:54:56.043Z,101355.75
2022-10-23T02:57:32.088Z,101352.31
2022-10-23T03:00:12.893Z,101349.69
2022-10-23T03:02:43.821Z,101351.47
2022-10-23T03:05:16.365Z,101351.38
2022-10-23T03:07:43.630Z,101339.31
2022-10-23T03:10:10.262Z,101331.56
2022-10-23T03:12:37.543Z,101336.13
2022-10-23T03:15:05.382Z,101325.56
2022-10-23T03:17:31.938Z,101335.19
2022-10-23T03:19:58.311Z,101318.75
2022-10-23T03:22:24.957Z,101328.41
2022-10-23T03:24:51.353Z,101321.53
2022-10-23T03:27:17.872Z,101321.59
2022-10-23T03:29:44.204Z,101314.69
2022-10-23T03:32:10.580Z,101318.97
2022-10-23T03:34:36.935Z,101315.53
2022-10-23T03:37:03.346Z,101323.38
2022-10-23T03:39:29.754Z,101319.16
2022-10-23T03:41:56.156Z,101300.94
2022-10-23T03:44:22.464Z,101301.84
2022-10-23T03:46:48.768Z,101295.81
2022-10-23T03:49:15.102Z,101298.47
2022-10-23T03:51:41.886Z,101299.47
2022-10-23T03:54:08.817Z,101296.03
2022-10-23T03:56:35.172Z,101290.66
2022-10-23T03:59:01.609Z,101291.59
2022-10-23T04:01:28.044Z,101282.00
2022-10-23T04:03:54.589Z,101271.63
2022-10-23T04:06:20.886Z,101262.19
2022-10-23T04:08:47.319Z,101262.19
2022-10-23T04:11:13.642Z,101255.22
2022-10-23T04:13:40.030Z,101259.59
2022-10-23T04:16:06.736Z,101251.69
2022-10-23T04:18:33.102Z,101251.75
2022-10-23T04:20:59.458Z,101250.84
2022-10-23T04:23:25.829Z,101248.25
2022-10-23T04:25:52.146Z,101245.63
2022-10-23T04:28:18.474Z,101242.16
2022-10-23T04:30:44.836Z,101239.66
2022-10-23T04:33:11.152Z,101240.50
2022-10-23T04:35:37.510Z,101238.72
2022-10-23T04:38:03.896Z,101231.84
2022-10-23T04:40:30.525Z,101223.13
2022-10-23T04:42:57.234Z,101222.22
2022-10-23T04:45:23.773Z,101228.28
2022-10-23T04:47:50.164Z,101220.53
2022-10-23T04:50:16.827Z,101222.31
2022-10-23T04:52:43.598Z,101225.91
2022-10-23T04:55:10.369Z,101220.69
2022-10-23T04:57:36.732Z,101221.47
2022-10-23T05:00:06.141Z,101210.19
2022-10-23T05:02:32.720Z,101206.75
2022-10-23T05:04:59.069Z,101209.25
2022-10-23T05:07:25.439Z,101212.81
2022-10-23T05:09:51.838Z,101210.97
2022-10-23T05:12:18.482Z,101200.66
2022-10-23T05:14:44.824Z,101198.00
2022-10-23T05:17:40.525Z,101197.00
2022-10-23T05:20:12.882Z,101204.88
2022-10-23T05:22:42.606Z,101206.59
2022-10-23T05:25:10.070Z,101207.41
2022-10-23T05:27:36.475Z,101201.38
2022-10-23T05:30:04.039Z,101201.38
2022-10-23T05:32:32.137Z,101202.06
2022-10-23T05:35:00.669Z,101201.13
2022-10-23T05:37:27.247Z,101195.84
2022-10-23T05:39:53.793Z,101201.84
2022-10-23T05:42:20.199Z,101199.22
2022-10-23T05:44:46.586Z,101193.06
2022-10-23T05:47:12.930Z,101197.38
2022-10-23T05:49:39.296Z,101188.63
2022-10-23T05:52:05.971Z,101191.16
2022-10-23T05:54:33.080Z,101191.09
2022-10-23T05:56:59.457Z,101192.00
2022-10-23T05:59:25.845Z,101185.00
2022-10-23T06:01:52.385Z,101184.88
2022-10-23T06:04:18.946Z,101181.41
2022-10-23T06:06:46.468Z,101182.25
2022-10-23T06:09:14.250Z,101177.88
2022-10-23T06:11:41.718Z,101178.72
2022-10-23T06:14:08.205Z,101170.88
2022-10-23T06:16:34.643Z,101176.97
2022-10-23T06:19:01.085Z,101175.19
2022-10-23T06:21:27.477Z,101174.25
2022-10-23T06:23:55.259Z,101159.53
2022-10-23T06:26:21.894Z,101161.22
2022-10-23T06:28:48.312Z,101149.88
2022-10-23T06:31:16.226Z,101143.81
2022-10-23T06:33:42.640Z,101148.94
2022-10-23T06:36:10.526Z,101149.78
2022-10-23T06:38:40.305Z,101142.81
2022-10-23T06:41:12.327Z,101136.56
2022-10-23T06:43:38.667Z,101143.56
2022-10-23T06:46:05.229Z,101138.28
2022-10-23T06:48:31.954Z,101133.06
2022-10-23T06:50:59.417Z,101132.03
2022-10-23T06:53:25.867Z,101132.81
2022-10-23T06:55:55.287Z,101129.25
2022-10-23T06:58:22.185Z,101129.19
2022-10-23T07:00:48.556Z,101126.50
2022-10-23T07:03:14.900Z,101126.31
2022-10-23T07:05:41.282Z,101125.41
2022-10-23T07:08:07.652Z,101121.03
2022-10-23T07:10:34.366Z,101125.25
2022-10-23T07:13:01.149Z,101112.97
2022-10-23T07:15:27.856Z,101115.50
2022-10-23T07:17:54.302Z,101121.38
2022-10-23T07:20:21.275Z,101129.88
2022-10-23T07:22:53.521Z,101129.63
2022-10-23T07:25:25.109Z,101120.78
2022-10-23T07:27:52.065Z,101118.03
2022-10-23T07:30:18.647Z,101112.72
2022-10-23T07:32:45.497Z,101116.94
2022-10-23T07:37:39.868Z,101117.50
2022-10-23T07:40:07.283Z,101114.75
2022-10-23T07:42:34.000Z,101114.63
2022-10-23T07:45:00.478Z,101109.25
2022-10-23T07:47:26.948Z,101099.56
2022-10-23T07:49:53.381Z,101104.63
2022-10-23T07:52:19.864Z,101107.06
2022-10-23T07:54:46.214Z,101106.06
2022-10-23T07:57:12.544Z,101103.38
2022-10-23T07:59:38.947Z,101099.66
2022-10-23T08:02:13.092Z,101095.91
2022-10-23T08:04:40.418Z,101088.94
2022-10-23T08:07:07.004Z,101091.38
2022-10-23T08:09:34.547Z,101086.00
2022-10-23T08:12:01.861Z,101086.75
2022-10-23T08:14:28.724Z,101085.63
2022-10-23T08:16:55.227Z,101081.88
2022-10-23T08:19:21.775Z,101090.41
2022-10-23T08:21:48.156Z,101082.41
2022-10-23T08:24:14.708Z,101075.22
2022-10-23T08:26:41.363Z,101073.31
2022-10-23T08:29:07.800Z,101070.50
2022-10-23T08:31:34.146Z,101073.88
2022-10-23T08:34:00.697Z,101069.50
2022-10-23T08:36:28.763Z,101070.25
2022-10-23T08:38:56.906Z,101067.53
2022-10-23T08:41:25.378Z,101063.06
2022-10-23T08:44:03.079Z,101059.31
2022-10-23T08:46:34.655Z,101045.22
2022-10-23T08:49:16.737Z,101040.75
2022-10-23T08:51:49.101Z,101037.97
2022-10-23T08:54:33.924Z,101026.41
2022-10-23T08:57:12.800Z,101030.59
2022-10-23T08:59:59.242Z,101024.25
2022-10-23T09:02:25.810Z,101019.94
2022-10-23T09:04:54.008Z,101020.53
2022-10-23T09:07:32.301Z,101026.31
2022-10-23T09:10:11.046Z,101021.53
2022-10-23T09:12:37.803Z,101019.50
2022-10-23T09:15:04.213Z,101008.66
2022-10-23T09:17:32.510Z,101011.91
2022-10-23T09:20:22.840Z,101002.00
2022-10-23T09:23:14.062Z,101004.41
2022-10-23T09:25:42.478Z,101006.00
2022-10-23T09:28:24.256Z,101000.50
2022-10-23T09:30:52.147Z,100990.97
2022-10-23T09:33:27.122Z,100997.78
2022-10-23T09:35:59.599Z,100995.28
2022-10-23T09:38:45.818Z,100990.03
2022-10-23T09:41:31.061Z,100993.50
2022-10-23T09:44:29.721Z,101000.38
2022-10-23T09:47:00.810Z,100987.41
2022-10-23T09:49:29.994Z,100984.81
2022-10-23T09:52:02.039Z,100971.81
2022-10-23T09:54:32.056Z,100964.88
2022-10-23T09:57:04.774Z,100969.19
2022-10-23T09:59:35.690Z,100967.31
2022-10-23T10:02:05.441Z,100963.66
2022-10-23T10:04:34.418Z,100955.72
2022-10-23T10:07:03.288Z,100954.69
2022-10-23T10:09:29.830Z,100962.22
2022-10-23T10:12:07.579Z,100951.59
2022-10-23T10:14:42.920Z,100947.84
2022-10-23T10:17:20.894Z,100954.53
2022-10-23T10:19:50.325Z,100957.78
2022-10-23T10:22:34.169Z,100950.59
2022-10-23T10:25:01.240Z,100942.66
2022-10-23T10:27:27.670Z,100943.38
2022-10-23T10:30:13.108Z,100931.88
2022-10-23T10:32:59.574Z,100923.88
2022-10-23T10:35:42.191Z,100915.03
2022-10-23T10:38:24.027Z,100913.22
2022-10-23T10:41:16.823Z,100907.91
2022-10-23T10:44:13.167Z,100905.06
2022-10-23T10:47:14.924Z,100901.25
2022-10-23T10:50:08.141Z,100890.56
2022-10-23T10:52:59.884Z,100880.81
2022-10-23T10:55:34.095Z,100873.69
2022-10-23T10:58:12.105Z,100860.41
2022-10-23T11:00:39.588Z,100849.94
2022-10-23T11:03:23.495Z,100850.53
2022-10-23T11:05:51.660Z,100855.78
2022-10-23T11:08:22.488Z,100852.22
2022-10-23T11:10:54.212Z,100854.63
2022-10-23T11:13:34.837Z,100841.22
2022-10-23T11:16:23.890Z,100846.88
2022-10-23T11:19:11.501Z,100840.69
2022-10-23T11:21:53.499Z,100837.97
2022-10-23T11:24:44.146Z,100829.16
2022-10-23T11:27:31.241Z,100834.41
2022-10-23T11:30:18.686Z,100828.97
2022-10-23T11:32:57.051Z,100822.44
2022-10-23T11:35:41.513Z,100813.22
2022-10-23T11:38:19.121Z,100802.09
2022-10-23T11:41:30.509Z,100784.88
2022-10-23T11:44:05.143Z,100787.69
2022-10-23T11:46:35.330Z,100789.88
2022-10-23T11:49:05.956Z,100781.44
2022-10-23T11:51:37.118Z,100780.78
2022-10-23T11:54:16.121Z,100778.22
2022-10-23T11:57:10.418Z,100764.44
2022-10-23T11:59:49.196Z,100766.38
2022-10-23T12:02:21.915Z,100755.56
2022-10-23T12:04:52.432Z,100750.06
2022-10-23T12:07:26.705Z,100737.31
2022-10-23T12:09:57.914Z,100741.50
2022-10-23T12:12:35.146Z,100748.19
2022-10-23T12:15:18.789Z,100746.91
2022-10-23T12:17:47.792Z,100743.19
2022-10-23T12:20:14.366Z,100748.22
2022-10-23T12:22:56.155Z,100735.69
2022-10-23T12:25:22.548Z,100735.56
2022-10-23T12:27:58.831Z,100718.03
2022-10-23T12:30:45.305Z,100711.59
2022-10-23T12:33:25.449Z,100703.50
2022-10-23T12:36:10.613Z,100694.63
2022-10-23T12:38:45.479Z,100703.13
2022-10-23T12:41:31.989Z,100698.72
2022-10-23T12:44:01.916Z,100687.38
2022-10-23T12:46:36.511Z,100688.19
2022-10-23T12:49:12.815Z,100682.84
2022-10-23T12:51:39.495Z,100681.66
2022-10-23T12:54:19.658Z,100678.78
2022-10-23T12:56:47.512Z,100676.13
2022-10-23T12:59:20.619Z,100675.91
2022-10-23T13:01:52.399Z,100662.06
2022-10-23T13:04:22.193Z,100655.72
2022-10-23T13:06:50.369Z,100653.94
2022-10-23T13:09:39.265Z,100643.91
2022-10-23T13:12:07.298Z,100643.66
2022-10-23T13:14:43.758Z,100630.25
2022-10-23T13:17:13.150Z,100631.97
2022-10-23T13:19:39.576Z,100641.50
2022-10-23T13:22:21.445Z,100637.66
2022-10-23T13:24:48.770Z,100627.31
2022-10-23T13:27:33.293Z,100629.66
2022-10-23T13:30:00.306Z,100614.88
2022-10-23T13:32:30.200Z,100609.38
2022-10-23T13:35:20.954Z,100606.63
2022-10-23T13:37:48.878Z,100597.66
2022-10-23T13:40:27.789Z,100597.19
2022-10-23T13:42:57.136Z,100589.03
2022-10-23T13:45:25.978Z,100580.09
2022-10-23T13:47:53.285Z,100571.94
2022-10-23T13:50:20.352Z,100556.88
2022-10-23T13:52:47.078Z,100560.22
2022-10-23T13:55:21.198Z,100551.25
2022-10-23T13:57:48.085Z,100548.63
2022-10-23T14:00:15.253Z,100552.06
2022-10-23T14:02:43.059Z,100540.63
2022-10-23T14:05:10.645Z,100534.38
2022-10-23T14:07:37.179Z,100542.03
2022-10-23T14:10:04.381Z,100542.84
2022-10-23T14:12:31.143Z,100544.66
2022-10-23T14:14:57.562Z,100532.22
2022-10-23T14:17:23.940Z,100526.09
2022-10-23T14:19:50.501Z,100526.97
2022-10-23T14:22:18.142Z,100525.03
2022-10-23T14:24:44.626Z,100527.53
2022-10-23T14:27:12.194Z,100516.88
2022-10-23T14:29:40.575Z,100509.59
2022-10-23T14:32:07.403Z,100518.75
2022-10-23T14:34:33.993Z,100516.47
2022-10-23T14:37:08.718Z,100521.06
2022-10-23T14:39:35.684Z,100524.16
2022-10-23T14:42:02.191Z,100519.72
2022-10-23T14:44:28.816Z,100515.56
2022-10-23T14:46:55.309Z,100514.97
2022-10-23T14:49:21.721Z,100516.19
2022-10-23T14:51:48.287Z,100518.94
2022-10-23T14:54:15.790Z,100517.53
2022-10-23T14:56:42.410Z,100511.44
2022-10-23T14:59:10.628Z,100511.44
2022-10-23T15:01:45.359Z,100507.97
2022-10-23T15:04:16.473Z,100504.38
2022-10-23T15:06:44.006Z,100497.47
2022-10-23T15:09:10.754Z,100491.38
2022-10-23T15:11:37.475Z,100483.59
2022-10-23T15:14:03.936Z,100476.00
2022-10-23T15:16:30.440Z,100474.44
2022-10-23T15:19:03.139Z,100480.66
2022-10-23T15:21:29.639Z,100482.72
2022-10-23T15:23:56.207Z,100495.16
2022-10-23T15:26:24.057Z,100481.28
2022-10-23T15:28:59.394Z,100480.47
2022-10-23T15:31:28.881Z,100463.16
2022-10-23T15:34:01.371Z,100456.38
2022-10-23T15:36:28.035Z,100461.88
2022-10-23T15:38:54.725Z,100453.28
2022-10-23T15:41:28.703Z,100452.44
2022-10-23T15:43:55.247Z,100448.28
2022-10-23T15:46:21.928Z,100450.06
2022-10-23T15:48:48.628Z,100441.47
2022-10-23T15:51:15.181Z,100446.06
2022-10-23T15:53:41.727Z,100446.19
2022-10-23T15:56:08.501Z,100442.72
2022-10-23T15:58:34.992Z,100439.22
2022-10-23T16:01:06.644Z,100425.38
2022-10-23T16:03:38.615Z,100424.69
2022-10-23T16:06:11.142Z,100413.34
2022-10-23T16:08:38.666Z,100404.84
2022-10-23T16:11:17.721Z,100410.25
2022-10-23T16:13:44.944Z,100407.03
2022-10-23T16:16:12.430Z,100403.69
2022-10-23T16:18:39.349Z,100411.56
2022-10-23T16:21:07.597Z,100408.94
2022-10-23T16:23:35.080Z,100410.88
2022-10-23T16:26:06.019Z,100413.63
2022-10-23T16:28:33.217Z,100416.41
2022-10-23T16:31:00.407Z,100410.28
2022-10-23T16:33:27.643Z,100414.72
2022-10-23T16:35:54.278Z,100412.09
2022-10-23T16:38:20.958Z,100410.16
2022-10-23T16:40:52.470Z,100405.75
2022-10-23T16:43:19.178Z,100409.47
2022-10-23T16:45:45.726Z,100406.94
2022-10-23T16:48:12.443Z,100408.75
2022-10-23T16:53:07.348Z,100396.00
2022-10-23T16:55:33.998Z,100393.38
2022-10-23T16:58:00.703Z,100388.94
2022-10-23T17:00:34.878Z,100388.13
2022-10-23T17:03:05.195Z,100398.63
2022-10-23T17:05:35.438Z,100401.03
2022-10-23T17:08:01.944Z,100392.44
2022-10-23T17:10:28.461Z,100388.13
2022-10-23T17:12:54.888Z,100407.34
2022-10-23T17:15:21.277Z,100411.75
2022-10-23T17:17:47.749Z,100412.59
2022-10-23T17:20:14.164Z,100418.69
2022-10-23T17:22:40.739Z,100406.50
2022-10-23T17:25:08.040Z,100397.09
2022-10-23T17:27:34.542Z,100399.84
2022-10-23T17:30:00.965Z,100392.94
2022-10-23T17:32:27.481Z,100391.25
2022-10-23T17:34:54.111Z,100393.88
2022-10-23T17:37:20.620Z,100393.16
2022-10-23T17:39:47.505Z,100395.91
2022-10-23T17:42:14.094Z,100413.63
2022-10-23T17:44:40.563Z,100401.44
2022-10-23T17:47:07.075Z,100397.97
2022-10-23T17:49:33.503Z,100404.19
2022-10-23T17:51:59.926Z,100406.97
2022-10-23T17:54:27.481Z,100412.22
2022-10-23T17:56:54.340Z,100394.06
2022-10-23T17:59:20.921Z,100395.03
2022-10-23T18:01:48.872Z,100392.53
2022-10-23T18:04:17.128Z,100388.91
2022-10-23T18:06:47.424Z,100393.22
2022-10-23T18:09:14.689Z,100384.66
2022-10-23T18:11:45.397Z,100381.19
2022-10-23T18:14:14.333Z,100376.88
2022-10-23T18:16:40.827Z,100376.88
2022-10-23T18:19:07.986Z,100372.47
2022-10-23T18:21:35.791Z,100379.63
2022-10-23T18:24:03.127Z,100376.06
2022-10-23T18:26:32.229Z,100378.56
2022-10-23T18:28:59.594Z,100378.69
2022-10-23T18:31:29.623Z,100359.09
2022-10-23T18:34:03.167Z,100353.34
2022-10-23T18:36:32.438Z,100360.94
2022-10-23T18:38:59.465Z,100346.00
2022-10-23T18:41:26.155Z,100344.69
2022-10-23T18:43:53.741Z,100347.78
2022-10-23T18:46:21.691Z,100356.34
2022-10-23T18:48:50.734Z,100363.16
2022-10-23T18:51:21.599Z,100347.13
2022-10-23T18:53:49.214Z,100330.25
2022-10-23T18:56:21.689Z,100346.88
2022-10-23T18:58:53.166Z,100362.63
2022-10-23T19:01:21.070Z,100344.25
2022-10-23T19:03:47.978Z,100341.72
2022-10-23T19:06:15.228Z,100345.19
2022-10-23T19:08:43.918Z,100340.75
2022-10-23T19:11:11.818Z,100313.53
2022-10-23T19:13:39.489Z,100304.13
2022-10-23T19:16:12.056Z,100306.75
2022-10-23T19:18:42.431Z,100317.63
2022-10-23T19:21:09.327Z,100319.59
2022-10-23T19:23:37.945Z,100309.19
2022-10-23T19:26:08.831Z,100309.19
2022-10-23T19:28:37.975Z,100314.31
2022-10-23T19:31:04.898Z,100325.78
2022-10-23T19:33:32.533Z,100321.34
2022-10-23T19:36:01.253Z,100322.88
2022-10-23T19:38:31.728Z,100337.69
2022-10-23T19:40:58.221Z,100336.88
2022-10-23T19:43:24.668Z,100358.72
2022-10-23T19:45:51.282Z,100361.22
2022-10-23T19:48:17.937Z,100365.63
2022-10-23T19:50:44.585Z,100365.88
2022-10-23T19:53:11.163Z,100374.75
2022-10-23T19:55:37.735Z,100383.00
2022-10-23T19:58:04.327Z,100370.13
2022-10-23T20:00:30.773Z,100375.50
2022-10-23T20:02:57.407Z,100380.75
2022-10-23T20:05:23.998Z,100376.59
2022-10-23T20:07:51.384Z,100384.72
2022-10-23T20:10:17.912Z,100394.66
2022-10-23T20:12:51.489Z,100392.13
2022-10-23T20:15:23.519Z,100397.50
2022-10-23T20:17:49.991Z,100396.81
2022-10-23T20:20:16.494Z,100412.56
2022-10-23T20:22:44.131Z,100417.97
2022-10-23T20:25:10.808Z,100417.25
2022-10-23T20:30:03.903Z,100415.94
2022-10-23T20:32:30.393Z,100424.09
2022-10-23T20:34:57.007Z,100419.06
2022-10-23T20:37:23.515Z,100428.75
2022-10-23T20:39:49.981Z,100429.69
2022-10-23T20:42:16.461Z,100428.28
2022-10-23T20:44:43.025Z,100434.59
2022-10-23T20:47:09.623Z,100434.84
2022-10-23T20:49:36.204Z,100433.19
2022-10-23T20:52:03.142Z,100431.63
2022-10-23T20:54:30.021Z,100444.06
2022-10-23T20:56:57.107Z,100432.97
2022-10-23T20:59:23.902Z,100455.03
2022-10-23T21:01:53.249Z,100439.44
2022-10-23T21:04:24.726Z,100448.97
2022-10-23T21:07:10.857Z,100457.09
2022-10-23T21:09:38.935Z,100440.75
2022-10-23T21:12:06.625Z,100434.91
2022-10-23T21:14:33.637Z,100436.81
2022-10-23T21:17:00.456Z,100451.13
2022-10-23T21:19:27.299Z,100448.75
2022-10-23T21:21:54.321Z,100453.28
2022-10-23T21:24:20.833Z,100450.91
2022-10-23T21:26:47.482Z,100452.81
2022-10-23T21:29:19.071Z,100442.41
2022-10-23T21:31:54.987Z,100434.66
2022-10-23T21:34:22.280Z,100435.00
2022-10-23T21:37:11.531Z,100443.97
2022-10-23T21:39:35.640Z,100436.91
2022-10-23T21:42:02.091Z,100440.25
2022-10-23T21:44:28.727Z,100428.22
2022-10-23T21:46:55.332Z,100430.72
2022-10-23T21:49:21.866Z,100435.00
2022-10-23T21:51:48.638Z,100442.06
2022-10-23T21:54:15.443Z,100438.56
2022-10-23T21:56:47.879Z,100448.13
2022-10-23T21:59:20.254Z,100444.69
2022-10-23T22:01:48.503Z,100446.44
2022-10-23T22:04:19.452Z,100449.22
2022-10-23T22:06:47.883Z,100448.34
2022-10-23T22:09:17.316Z,100457.78
2022-10-23T22:11:43.859Z,100450.88
2022-10-23T22:14:10.434Z,100454.47
2022-10-23T22:16:37.251Z,100457.91
2022-10-23T22:19:03.929Z,100455.16
2022-10-23T22:21:31.327Z,100441.09
2022-10-23T22:23:59.914Z,100446.59
2022-10-23T22:26:32.145Z,100443.25
2022-10-23T22:29:01.657Z,100446.94
2022-10-23T22:31:31.553Z,100443.00
2022-10-23T22:33:58.939Z,100443.22
2022-10-23T22:36:25.819Z,100446.09
2022-10-23T22:38:52.746Z,100445.38
2022-10-23T22:41:19.382Z,100437.78
2022-10-23T22:43:46.048Z,100437.88
2022-10-23T22:46:14.599Z,100438.69
2022-10-23T22:48:41.357Z,100438.00
2022-10-23T22:51:10.314Z,100443.94
2022-10-23T22:53:36.804Z,100429.19
2022-10-23T22:56:11.719Z,100440.38
2022-10-23T22:58:38.120Z,100420.34
2022-10-23T23:01:18.804Z,100423.69
2022-10-23T23:03:45.882Z,100436.91
2022-10-23T23:06:12.787Z,100418.56
2022-10-23T23:08:40.401Z,100418.44
2022-10-23T23:11:10.642Z,100416.53
2022-10-23T23:13:37.040Z,100413.09
2022-10-23T23:16:04.012Z,100415.59
2022-10-23T23:18:31.133Z,100411.28
2022-10-23T23:21:02.250Z,100407.03
2022-10-23T23:23:29.019Z,100403.69
2022-10-23T23:25:55.530Z,100403.91
2022-10-23T23:28:22.048Z,100401.38
2022-10-23T23:30:48.935Z,100395.56
2022-10-23T23:33:19.358Z,100391.53
2022-10-23T23:35:48.013Z,100390.81
2022-10-23T23:38:14.352Z,100387.56
2022-10-23T23:40:40.751Z,100385.06
2022-10-23T23:43:07.888Z,100384.34
2022-10-23T23:45:34.265Z,100385.31
2022-10-23T23:48:00.589Z,100373.16
2022-10-23T23:50:27.916Z,100371.38
2022-10-23T23:52:54.285Z,100367.06
2022-10-23T23:55:20.634Z,100371.25
2022-10-23T23:57:47.292Z,100368.50
